sensor_id;sensor_type;location;lat;lon;timestamp;P1;durP1;ratioP1;P2;durP2;ratioP2
44850;SDS011;30583;48.714;9.386;2022-10-15T16:05:32;7.30;;;2.53;;
44850;SDS011;30583;48.714;9.386;2022-10-15T16:07:58;3.45;;;0.80;;
44850;SDS011;30583;48.714;9.386;2022-10-15T16:10:24;2.95;;;1.00;;
44850;SDS011;30583;48.714;9.386;2022-10-15T16:12:49;5.22;;;3.13;;
44850;SDS011;30583;48.714;9.386;2022-10-15T16:15:15;4.75;;;2.75;;
44850;SDS011;30583;48.714;9.386;2022-10-15T16:17:41;4.88;;;2.03;;
44850;SDS011;30583;48.714;9.386;2022-10-15T16:20:07;4.32;;;1.77;;
44850;SDS011;30583;48.714;9.386;2022-10-15T16:22:33;3.60;;;1.25;;
44850;SDS011;30583;48.714;9.386;2022-10-15T16:24:59;5.53;;;1.13;;
44850;SDS011;30583;48.714;9.386;2022-10-15T16:27:25;4.75;;;1.38;;
44850;SDS011;30583;48.714;9.386;2022-10-15T16:29:50;2.22;;;1.30;;
44850;SDS011;30583;48.714;9.386;2022-10-15T16:32:16;4.32;;;1.00;;
44850;SDS011;30583;48.714;9.386;2022-10-15T16:34:42;4.75;;;1.38;;
44850;SDS011;30583;48.714;9.386;2022-10-15T16:37:08;3.85;;;1.40;;
44850;SDS011;30583;48.714;9.386;2022-10-15T16:39:33;6.10;;;1.80;;
44850;SDS011;30583;48.714;9.386;2022-10-15T16:41:59;3.00;;;1.30;;
44850;SDS011;30583;48.714;9.386;2022-10-15T16:44:24;13.38;;;7.55;;
44850;SDS011;30583;48.714;9.386;2022-10-15T16:46:50;10.43;;;5.18;;
44850;SDS011;30583;48.714;9.386;2022-10-15T16:49:15;8.75;;;5.05;;
44850;SDS011;30583;48.714;9.386;2022-10-15T16:51:41;8.50;;;3.40;;
44850;SDS011;30583;48.714;9.386;2022-10-15T16:54:08;4.10;;;1.60;;
44850;SDS011;30583;48.714;9.386;2022-10-15T16:56:37;8.05;;;5.32;;
44850;SDS011;30583;48.714;9.386;2022-10-15T16:59:03;6.20;;;3.58;;
44850;SDS011;30583;48.714;9.386;2022-10-15T17:01:29;5.10;;;2.30;;
44850;SDS011;30583;48.714;9.386;2022-10-15T17:03:56;9.05;;;2.70;;
44850;SDS011;30583;48.714;9.386;2022-10-15T17:06:23;3.83;;;2.00;;
44850;SDS011;30583;48.714;9.386;2022-10-15T17:08:53;7.00;;;2.47;;
44850;SDS011;30583;48.714;9.386;2022-10-15T17:11:21;3.72;;;1.92;;
44850;SDS011;30583;48.714;9.386;2022-10-15T17:13:47;4.70;;;2.03;;
44850;SDS011;30583;48.714;9.386;2022-10-15T17:16:15;3.95;;;2.47;;
44850;SDS011;30583;48.714;9.386;2022-10-15T17:18:43;4.85;;;2.15;;
44850;SDS011;30583;48.714;9.386;2022-10-15T17:21:11;7.13;;;2.10;;
44850;SDS011;30583;48.714;9.386;2022-10-15T17:23:38;5.70;;;2.40;;
44850;SDS011;30583;48.714;9.386;2022-10-15T17:26:09;9.65;;;4.57;;
44850;SDS011;30583;48.714;9.386;2022-10-15T17:28:40;6.30;;;4.20;;
44850;SDS011;30583;48.714;9.386;2022-10-15T17:31:09;12.30;;;6.15;;
44850;SDS011;30583;48.714;9.386;2022-10-15T17:33:36;10.20;;;6.35;;
44850;SDS011;30583;48.714;9.386;2022-10-15T17:36:03;5.13;;;3.40;;
44850;SDS011;30583;48.714;9.386;2022-10-15T17:38:31;8.20;;;3.55;;
44850;SDS011;30583;48.714;9.386;2022-10-15T17:40:57;5.88;;;3.08;;
44850;SDS011;30583;48.714;9.386;2022-10-15T17:43:24;9.20;;;3.70;;
44850;SDS011;30583;48.714;9.386;2022-10-15T17:46:01;6.65;;;3.17;;
44850;SDS011;30583;48.714;9.386;2022-10-15T17:48:28;6.18;;;2.88;;
44850;SDS011;30583;48.714;9.386;2022-10-15T17:50:54;9.75;;;4.20;;
44850;SDS011;30583;48.714;9.386;2022-10-15T17:53:20;8.60;;;4.68;;
44850;SDS011;30583;48.714;9.386;2022-10-15T17:55:45;8.65;;;4.18;;
44850;SDS011;30583;48.714;9.386;2022-10-15T17:58:11;9.38;;;4.38;;
44850;SDS011;30583;48.714;9.386;2022-10-15T18:00:37;9.35;;;6.20;;
44850;SDS011;30583;48.714;9.386;2022-10-15T18:03:02;10.75;;;5.88;;
44850;SDS011;30583;48.714;9.386;2022-10-15T18:05:29;10.10;;;5.22;;
44850;SDS011;30583;48.714;9.386;2022-10-15T18:07:56;9.43;;;4.85;;
44850;SDS011;30583;48.714;9.386;2022-10-15T18:10:21;10.63;;;3.70;;
44850;SDS011;30583;48.714;9.386;2022-10-15T18:12:47;10.95;;;5.55;;
44850;SDS011;30583;48.714;9.386;2022-10-15T18:15:12;11.88;;;6.03;;
44850;SDS011;30583;48.714;9.386;2022-10-15T18:17:38;14.40;;;7.35;;
44850;SDS011;30583;48.714;9.386;2022-10-15T18:20:04;13.27;;;9.38;;
44850;SDS011;30583;48.714;9.386;2022-10-15T18:22:30;13.25;;;7.70;;
44850;SDS011;30583;48.714;9.386;2022-10-15T18:24:57;12.50;;;8.13;;
44850;SDS011;30583;48.714;9.386;2022-10-15T18:27:22;11.90;;;6.90;;
44850;SDS011;30583;48.714;9.386;2022-10-15T18:29:48;9.90;;;6.78;;
44850;SDS011;30583;48.714;9.386;2022-10-15T18:32:13;12.20;;;8.38;;
44850;SDS011;30583;48.714;9.386;2022-10-15T18:34:39;20.83;;;12.35;;
44850;SDS011;30583;48.714;9.386;2022-10-15T18:37:05;22.25;;;14.50;;
44850;SDS011;30583;48.714;9.386;2022-10-15T18:39:30;16.52;;;10.88;;
44850;SDS011;30583;48.714;9.386;2022-10-15T18:41:56;16.15;;;9.85;;
44850;SDS011;30583;48.714;9.386;2022-10-15T18:44:22;12.50;;;8.20;;
44850;SDS011;30583;48.714;9.386;2022-10-15T18:46:48;9.85;;;7.10;;
44850;SDS011;30583;48.714;9.386;2022-10-15T18:49:15;12.18;;;6.78;;
44850;SDS011;30583;48.714;9.386;2022-10-15T18:51:42;10.90;;;6.93;;
44850;SDS011;30583;48.714;9.386;2022-10-15T18:54:10;11.65;;;8.25;;
44850;SDS011;30583;48.714;9.386;2022-10-15T18:56:36;9.05;;;6.72;;
44850;SDS011;30583;48.714;9.386;2022-10-15T18:59:02;11.38;;;6.30;;
44850;SDS011;30583;48.714;9.386;2022-10-15T19:01:32;8.25;;;5.43;;
44850;SDS011;30583;48.714;9.386;2022-10-15T19:04:00;8.75;;;5.38;;
44850;SDS011;30583;48.714;9.386;2022-10-15T19:06:32;10.38;;;5.10;;
44850;SDS011;30583;48.714;9.386;2022-10-15T19:09:00;10.52;;;5.10;;
44850;SDS011;30583;48.714;9.386;2022-10-15T19:11:27;11.07;;;6.15;;
44850;SDS011;30583;48.714;9.386;2022-10-15T19:13:55;9.10;;;6.47;;
44850;SDS011;30583;48.714;9.386;2022-10-15T19:16:21;12.68;;;7.10;;
44850;SDS011;30583;48.714;9.386;2022-10-15T19:18:47;9.95;;;5.50;;
44850;SDS011;30583;48.714;9.386;2022-10-15T19:21:12;8.40;;;5.57;;
44850;SDS011;30583;48.714;9.386;2022-10-15T19:23:38;11.75;;;4.15;;
44850;SDS011;30583;48.714;9.386;2022-10-15T19:26:07;7.85;;;4.50;;
44850;SDS011;30583;48.714;9.386;2022-10-15T19:28:33;6.88;;;3.60;;
44850;SDS011;30583;48.714;9.386;2022-10-15T19:31:00;8.18;;;3.42;;
44850;SDS011;30583;48.714;9.386;2022-10-15T19:33:29;11.68;;;3.67;;
44850;SDS011;30583;48.714;9.386;2022-10-15T19:35:56;9.90;;;3.30;;
44850;SDS011;30583;48.714;9.386;2022-10-15T19:38:22;6.00;;;2.90;;
44850;SDS011;30583;48.714;9.386;2022-10-15T19:40:48;12.60;;;4.18;;
44850;SDS011;30583;48.714;9.386;2022-10-15T19:43:15;12.35;;;4.60;;
44850;SDS011;30583;48.714;9.386;2022-10-15T19:45:42;16.95;;;9.35;;
44850;SDS011;30583;48.714;9.386;2022-10-15T19:48:09;10.45;;;4.70;;
44850;SDS011;30583;48.714;9.386;2022-10-15T19:50:36;10.40;;;3.80;;
44850;SDS011;30583;48.714;9.386;2022-10-15T19:53:03;6.30;;;3.28;;
44850;SDS011;30583;48.714;9.386;2022-10-15T19:55:29;7.40;;;3.17;;
44850;SDS011;30583;48.714;9.386;2022-10-15T19:57:54;11.10;;;3.00;;
44850;SDS011;30583;48.714;9.386;2022-10-15T20:00:20;9.20;;;4.57;;
44850;SDS011;30583;48.714;9.386;2022-10-15T20:02:46;11.63;;;4.97;;
44850;SDS011;30583;48.714;9.386;2022-10-15T20:05:11;10.43;;;4.95;;
44850;SDS011;30583;48.714;9.386;2022-10-15T20:07:37;14.65;;;5.03;;
44850;SDS011;30583;48.714;9.386;2022-10-15T20:10:02;11.00;;;4.82;;
44850;SDS011;30583;48.714;9.386;2022-10-15T20:12:28;11.10;;;5.07;;
44850;SDS011;30583;48.714;9.386;2022-10-15T20:14:54;9.52;;;4.35;;
44850;SDS011;30583;48.714;9.386;2022-10-15T20:17:20;6.93;;;4.38;;
44850;SDS011;30583;48.714;9.386;2022-10-15T20:19:46;5.85;;;3.40;;
44850;SDS011;30583;48.714;9.386;2022-10-15T20:22:11;6.90;;;3.10;;
44850;SDS011;30583;48.714;9.386;2022-10-15T20:24:37;10.95;;;3.42;;
44850;SDS011;30583;48.714;9.386;2022-10-15T20:27:03;9.40;;;3.15;;
44850;SDS011;30583;48.714;9.386;2022-10-15T20:29:28;6.03;;;3.05;;
44850;SDS011;30583;48.714;9.386;2022-10-15T20:31:54;5.72;;;2.40;;
44850;SDS011;30583;48.714;9.386;2022-10-15T20:34:20;9.95;;;3.63;;
44850;SDS011;30583;48.714;9.386;2022-10-15T20:36:52;10.55;;;4.55;;
44850;SDS011;30583;48.714;9.386;2022-10-15T20:39:19;16.73;;;5.05;;
44850;SDS011;30583;48.714;9.386;2022-10-15T20:41:45;9.80;;;4.72;;
44850;SDS011;30583;48.714;9.386;2022-10-15T20:44:11;8.27;;;4.53;;
44850;SDS011;30583;48.714;9.386;2022-10-15T20:46:57;11.82;;;4.18;;
44850;SDS011;30583;48.714;9.386;2022-10-15T20:49:28;11.32;;;4.03;;
44850;SDS011;30583;48.714;9.386;2022-10-15T20:51:59;8.93;;;4.07;;
44850;SDS011;30583;48.714;9.386;2022-10-15T20:54:25;8.90;;;4.45;;
44850;SDS011;30583;48.714;9.386;2022-10-15T20:56:51;7.85;;;4.05;;
44850;SDS011;30583;48.714;9.386;2022-10-15T20:59:18;8.80;;;3.47;;
44850;SDS011;30583;48.714;9.386;2022-10-15T21:01:44;8.18;;;3.60;;
44850;SDS011;30583;48.714;9.386;2022-10-15T21:04:09;5.85;;;3.60;;
44850;SDS011;30583;48.714;9.386;2022-10-15T21:06:35;11.43;;;4.00;;
44850;SDS011;30583;48.714;9.386;2022-10-15T21:09:00;11.85;;;3.35;;
44850;SDS011;30583;48.714;9.386;2022-10-15T21:11:26;7.50;;;4.32;;
44850;SDS011;30583;48.714;9.386;2022-10-15T21:13:52;13.38;;;5.50;;
44850;SDS011;30583;48.714;9.386;2022-10-15T21:16:17;12.20;;;5.60;;
44850;SDS011;30583;48.714;9.386;2022-10-15T21:18:43;12.48;;;5.30;;
44850;SDS011;30583;48.714;9.386;2022-10-15T21:21:09;7.60;;;4.35;;
44850;SDS011;30583;48.714;9.386;2022-10-15T21:23:37;12.48;;;4.80;;
44850;SDS011;30583;48.714;9.386;2022-10-15T21:28:34;14.80;;;5.70;;
44850;SDS011;30583;48.714;9.386;2022-10-15T21:31:04;22.70;;;8.27;;
44850;SDS011;30583;48.714;9.386;2022-10-15T21:33:31;19.00;;;8.30;;
44850;SDS011;30583;48.714;9.386;2022-10-15T21:35:56;21.90;;;9.93;;
44850;SDS011;30583;48.714;9.386;2022-10-15T21:38:32;13.18;;;5.95;;
44850;SDS011;30583;48.714;9.386;2022-10-15T21:40:57;11.13;;;4.90;;
44850;SDS011;30583;48.714;9.386;2022-10-15T21:43:23;7.95;;;3.97;;
44850;SDS011;30583;48.714;9.386;2022-10-15T21:45:48;8.65;;;4.00;;
44850;SDS011;30583;48.714;9.386;2022-10-15T21:48:14;14.15;;;5.18;;
44850;SDS011;30583;48.714;9.386;2022-10-15T21:50:39;19.42;;;8.02;;
44850;SDS011;30583;48.714;9.386;2022-10-15T21:53:10;17.52;;;7.35;;
44850;SDS011;30583;48.714;9.386;2022-10-15T21:55:36;27.15;;;9.35;;
44850;SDS011;30583;48.714;9.386;2022-10-15T21:58:02;17.83;;;6.90;;
44850;SDS011;30583;48.714;9.386;2022-10-15T22:00:27;13.50;;;5.88;;
44850;SDS011;30583;48.714;9.386;2022-10-15T22:02:53;9.80;;;4.93;;
44850;SDS011;30583;48.714;9.386;2022-10-15T22:05:18;10.35;;;4.28;;
44850;SDS011;30583;48.714;9.386;2022-10-15T22:07:44;6.65;;;3.80;;
44850;SDS011;30583;48.714;9.386;2022-10-15T22:10:10;9.55;;;4.32;;
44850;SDS011;30583;48.714;9.386;2022-10-15T22:12:35;10.60;;;5.18;;
44850;SDS011;30583;48.714;9.386;2022-10-15T22:15:01;12.73;;;3.80;;
44850;SDS011;30583;48.714;9.386;2022-10-15T22:17:26;8.63;;;3.88;;
44850;SDS011;30583;48.714;9.386;2022-10-15T22:19:52;7.30;;;3.47;;
44850;SDS011;30583;48.714;9.386;2022-10-15T22:22:17;12.45;;;3.78;;
44850;SDS011;30583;48.714;9.386;2022-10-15T22:24:43;10.90;;;3.90;;
44850;SDS011;30583;48.714;9.386;2022-10-15T22:27:09;10.70;;;3.83;;
44850;SDS011;30583;48.714;9.386;2022-10-15T22:29:34;9.13;;;4.18;;
44850;SDS011;30583;48.714;9.386;2022-10-15T22:32:00;9.18;;;3.50;;
44850;SDS011;30583;48.714;9.386;2022-10-15T22:34:26;9.80;;;3.58;;
44850;SDS011;30583;48.714;9.386;2022-10-15T22:36:51;7.40;;;2.85;;
44850;SDS011;30583;48.714;9.386;2022-10-15T22:39:17;9.05;;;3.45;;
44850;SDS011;30583;48.714;9.386;2022-10-15T22:41:44;9.13;;;2.90;;
44850;SDS011;30583;48.714;9.386;2022-10-15T22:44:12;8.13;;;3.22;;
44850;SDS011;30583;48.714;9.386;2022-10-15T22:46:42;8.82;;;2.50;;
44850;SDS011;30583;48.714;9.386;2022-10-15T22:49:13;4.80;;;2.65;;
44850;SDS011;30583;48.714;9.386;2022-10-15T22:51:40;8.82;;;2.50;;
44850;SDS011;30583;48.714;9.386;2022-10-15T22:54:06;6.38;;;2.60;;
44850;SDS011;30583;48.714;9.386;2022-10-15T22:56:32;11.00;;;3.22;;
44850;SDS011;30583;48.714;9.386;2022-10-15T22:58:58;7.43;;;2.80;;
44850;SDS011;30583;48.714;9.386;2022-10-15T23:01:25;6.85;;;2.65;;
44850;SDS011;30583;48.714;9.386;2022-10-15T23:03:53;9.73;;;3.47;;
44850;SDS011;30583;48.714;9.386;2022-10-15T23:06:20;7.72;;;3.08;;
44850;SDS011;30583;48.714;9.386;2022-10-15T23:08:47;8.07;;;2.70;;
44850;SDS011;30583;48.714;9.386;2022-10-15T23:13:50;9.52;;;3.00;;
44850;SDS011;30583;48.714;9.386;2022-10-15T23:16:18;10.90;;;2.80;;
44850;SDS011;30583;48.714;9.386;2022-10-15T23:18:56;12.65;;;3.05;;
44850;SDS011;30583;48.714;9.386;2022-10-15T23:21:56;25.05;;;4.63;;
44850;SDS011;30583;48.714;9.386;2022-10-15T23:24:16;6.28;;;2.70;;
44850;SDS011;30583;48.714;9.386;2022-10-15T23:26:44;10.73;;;3.15;;
44850;SDS011;30583;48.714;9.386;2022-10-15T23:29:14;10.00;;;2.83;;
44850;SDS011;30583;48.714;9.386;2022-10-15T23:31:41;6.75;;;2.90;;
44850;SDS011;30583;48.714;9.386;2022-10-15T23:34:08;8.60;;;2.88;;
44850;SDS011;30583;48.714;9.386;2022-10-15T23:36:38;4.90;;;2.95;;
44850;SDS011;30583;48.714;9.386;2022-10-15T23:39:04;11.13;;;3.55;;
44850;SDS011;30583;48.714;9.386;2022-10-15T23:41:31;8.25;;;3.28;;
44850;SDS011;30583;48.714;9.386;2022-10-15T23:43:57;13.63;;;3.03;;
44850;SDS011;30583;48.714;9.386;2022-10-15T23:46:22;9.18;;;3.60;;
44850;SDS011;30583;48.714;9.386;2022-10-15T23:48:49;5.72;;;2.97;;
44850;SDS011;30583;48.714;9.386;2022-10-15T23:51:19;9.73;;;3.25;;
44850;SDS011;30583;48.714;9.386;2022-10-15T23:53:49;10.65;;;3.58;;
44850;SDS011;30583;48.714;9.386;2022-10-15T23:56:15;6.70;;;3.50;;
44850;SDS011;30583;48.714;9.386;2022-10-15T23:58:41;6.63;;;3.22;;
